sensor_id;sensor_type;location;lat;lon;timestamp;P1;durP1;ratioP1;P2;durP2;ratioP2
57893;SDS011;43710;47.460;19.034;2022-08-18T04:00:36;13.65;;;11.30;;
57893;SDS011;43710;47.460;19.034;2022-08-18T04:03:40;13.15;;;11.32;;
57893;SDS011;43710;47.460;19.034;2022-08-18T04:06:44;14.38;;;11.23;;
57893;SDS011;43710;47.460;19.034;2022-08-18T04:09:52;16.90;;;11.02;;
57893;SDS011;43710;47.460;19.034;2022-08-18T04:12:54;12.95;;;10.45;;
57893;SDS011;43710;47.460;19.034;2022-08-18T04:15:58;12.98;;;10.30;;
57893;SDS011;43710;47.460;19.034;2022-08-18T04:19:00;12.50;;;10.10;;
57893;SDS011;43710;47.460;19.034;2022-08-18T04:22:04;15.57;;;9.82;;
57893;SDS011;43710;47.460;19.034;2022-08-18T04:25:07;15.65;;;9.98;;
57893;SDS011;43710;47.460;19.034;2022-08-18T04:28:10;13.95;;;10.23;;
57893;SDS011;43710;47.460;19.034;2022-08-18T04:31:13;13.40;;;10.05;;
57893;SDS011;43710;47.460;19.034;2022-08-18T04:34:17;13.75;;;10.90;;
57893;SDS011;43710;47.460;19.034;2022-08-18T04:37:21;15.23;;;10.40;;
57893;SDS011;43710;47.460;19.034;2022-08-18T04:40:23;12.32;;;10.07;;
57893;SDS011;43710;47.460;19.034;2022-08-18T04:43:28;17.27;;;11.02;;
57893;SDS011;43710;47.460;19.034;2022-08-18T04:46:38;13.38;;;10.93;;
57893;SDS011;43710;47.460;19.034;2022-08-18T04:49:43;14.70;;;9.60;;
57893;SDS011;43710;47.460;19.034;2022-08-18T04:52:45;12.35;;;10.10;;
57893;SDS011;43710;47.460;19.034;2022-08-18T04:56:06;14.40;;;11.15;;
57893;SDS011;43710;47.460;19.034;2022-08-18T04:59:09;14.00;;;10.93;;
57893;SDS011;43710;47.460;19.034;2022-08-18T05:02:14;14.15;;;10.73;;
57893;SDS011;43710;47.460;19.034;2022-08-18T05:05:17;13.18;;;10.32;;
57893;SDS011;43710;47.460;19.034;2022-08-18T05:08:19;12.93;;;10.65;;
57893;SDS011;43710;47.460;19.034;2022-08-18T05:11:23;12.00;;;10.73;;
57893;SDS011;43710;47.460;19.034;2022-08-18T05:14:29;15.23;;;10.73;;
57893;SDS011;43710;47.460;19.034;2022-08-18T05:17:32;18.02;;;11.27;;
57893;SDS011;43710;47.460;19.034;2022-08-18T05:20:40;11.50;;;10.25;;
57893;SDS011;43710;47.460;19.034;2022-08-18T05:23:45;14.90;;;10.20;;
57893;SDS011;43710;47.460;19.034;2022-08-18T05:26:49;14.68;;;10.50;;
57893;SDS011;43710;47.460;19.034;2022-08-18T05:29:52;19.37;;;11.32;;
57893;SDS011;43710;47.460;19.034;2022-08-18T05:32:54;14.00;;;11.07;;
57893;SDS011;43710;47.460;19.034;2022-08-18T05:36:00;14.38;;;10.98;;
57893;SDS011;43710;47.460;19.034;2022-08-18T05:39:09;15.07;;;10.63;;
57893;SDS011;43710;47.460;19.034;2022-08-18T05:42:33;13.07;;;10.40;;
57893;SDS011;43710;47.460;19.034;2022-08-18T05:45:38;11.68;;;10.48;;
57893;SDS011;43710;47.460;19.034;2022-08-18T05:48:41;14.02;;;11.18;;
57893;SDS011;43710;47.460;19.034;2022-08-18T05:51:45;17.35;;;10.98;;
57893;SDS011;43710;47.460;19.034;2022-08-18T05:54:53;16.37;;;10.18;;
57893;SDS011;43710;47.460;19.034;2022-08-18T05:58:17;13.65;;;10.73;;
57893;SDS011;43710;47.460;19.034;2022-08-18T06:01:37;12.57;;;10.98;;
57893;SDS011;43710;47.460;19.034;2022-08-18T06:04:46;22.90;;;11.30;;
57893;SDS011;43710;47.460;19.034;2022-08-18T06:07:53;20.60;;;10.57;;
57893;SDS011;43710;47.460;19.034;2022-08-18T06:10:59;19.83;;;11.07;;
57893;SDS011;43710;47.460;19.034;2022-08-18T06:14:01;12.63;;;10.27;;
57893;SDS011;43710;47.460;19.034;2022-08-18T06:17:07;20.10;;;10.77;;
57893;SDS011;43710;47.460;19.034;2022-08-18T06:20:25;14.60;;;10.57;;
57893;SDS011;43710;47.460;19.034;2022-08-18T06:30:14;20.15;;;10.93;;
57893;SDS011;43710;47.460;19.034;2022-08-18T06:39:55;21.42;;;11.18;;
57893;SDS011;43710;47.460;19.034;2022-08-18T06:42:58;24.48;;;11.60;;
57893;SDS011;43710;47.460;19.034;2022-08-18T06:46:22;19.15;;;11.05;;
57893;SDS011;43710;47.460;19.034;2022-08-18T06:49:47;15.57;;;10.57;;
57893;SDS011;43710;47.460;19.034;2022-08-18T06:52:59;14.40;;;10.38;;
57893;SDS011;43710;47.460;19.034;2022-08-18T06:56:18;17.08;;;11.02;;
57893;SDS011;43710;47.460;19.034;2022-08-18T06:59:44;15.65;;;10.07;;
57893;SDS011;43710;47.460;19.034;2022-08-18T07:02:57;20.88;;;10.52;;
57893;SDS011;43710;47.460;19.034;2022-08-18T07:06:09;14.85;;;9.60;;
57893;SDS011;43710;47.460;19.034;2022-08-18T07:09:25;15.15;;;9.82;;
57893;SDS011;43710;47.460;19.034;2022-08-18T07:12:34;14.25;;;9.65;;
57893;SDS011;43710;47.460;19.034;2022-08-18T07:15:37;23.00;;;9.40;;
57893;SDS011;43710;47.460;19.034;2022-08-18T07:18:40;13.80;;;9.30;;
57893;SDS011;43710;47.460;19.034;2022-08-18T07:21:44;14.95;;;9.60;;
57893;SDS011;43710;47.460;19.034;2022-08-18T07:25:02;20.25;;;9.73;;
57893;SDS011;43710;47.460;19.034;2022-08-18T07:28:25;10.27;;;8.93;;
57893;SDS011;43710;47.460;19.034;2022-08-18T07:31:33;14.70;;;9.07;;
57893;SDS011;43710;47.460;19.034;2022-08-18T07:34:42;11.80;;;9.15;;
57893;SDS011;43710;47.460;19.034;2022-08-18T07:37:52;12.52;;;8.93;;
57893;SDS011;43710;47.460;19.034;2022-08-18T07:40:58;13.10;;;9.10;;
57893;SDS011;43710;47.460;19.034;2022-08-18T07:44:10;14.18;;;9.25;;
57893;SDS011;43710;47.460;19.034;2022-08-18T07:47:24;27.67;;;10.07;;
57893;SDS011;43710;47.460;19.034;2022-08-18T07:50:33;16.35;;;9.10;;
57893;SDS011;43710;47.460;19.034;2022-08-18T07:57:45;23.12;;;10.02;;
57893;SDS011;43710;47.460;19.034;2022-08-18T08:04:25;17.20;;;9.13;;
57893;SDS011;43710;47.460;19.034;2022-08-18T08:07:34;20.55;;;9.73;;
57893;SDS011;43710;47.460;19.034;2022-08-18T08:10:40;27.73;;;9.65;;
57893;SDS011;43710;47.460;19.034;2022-08-18T08:17:32;12.63;;;9.02;;
57893;SDS011;43710;47.460;19.034;2022-08-18T08:20:39;12.10;;;8.98;;
57893;SDS011;43710;47.460;19.034;2022-08-18T08:23:51;14.00;;;9.35;;
57893;SDS011;43710;47.460;19.034;2022-08-18T08:27:01;11.25;;;9.00;;
57893;SDS011;43710;47.460;19.034;2022-08-18T08:30:18;10.98;;;8.27;;
57893;SDS011;43710;47.460;19.034;2022-08-18T08:33:23;14.00;;;8.90;;
57893;SDS011;43710;47.460;19.034;2022-08-18T08:36:33;12.13;;;9.00;;
57893;SDS011;43710;47.460;19.034;2022-08-18T08:39:44;12.43;;;8.73;;
57893;SDS011;43710;47.460;19.034;2022-08-18T08:46:10;16.25;;;8.98;;
57893;SDS011;43710;47.460;19.034;2022-08-18T08:49:22;13.45;;;9.00;;
57893;SDS011;43710;47.460;19.034;2022-08-18T08:52:34;9.98;;;8.27;;
57893;SDS011;43710;47.460;19.034;2022-08-18T08:55:45;10.98;;;8.70;;
57893;SDS011;43710;47.460;19.034;2022-08-18T08:58:55;10.27;;;9.18;;
57893;SDS011;43710;47.460;19.034;2022-08-18T09:05:50;13.60;;;8.15;;
57893;SDS011;43710;47.460;19.034;2022-08-18T09:09:06;15.35;;;8.25;;
57893;SDS011;43710;47.460;19.034;2022-08-18T09:29:47;9.07;;;8.18;;
57893;SDS011;43710;47.460;19.034;2022-08-18T09:33:00;16.10;;;9.05;;
57893;SDS011;43710;47.460;19.034;2022-08-18T09:36:27;11.98;;;7.47;;
57893;SDS011;43710;47.460;19.034;2022-08-18T09:39:51;13.75;;;8.02;;
57893;SDS011;43710;47.460;19.034;2022-08-18T09:43:56;12.10;;;7.45;;
57893;SDS011;43710;47.460;19.034;2022-08-18T09:50:32;12.48;;;8.43;;
57893;SDS011;43710;47.460;19.034;2022-08-18T09:59:57;9.50;;;7.05;;
57893;SDS011;43710;47.460;19.034;2022-08-18T10:03:25;15.40;;;7.78;;
57893;SDS011;43710;47.460;19.034;2022-08-18T10:06:35;10.07;;;7.50;;
57893;SDS011;43710;47.460;19.034;2022-08-18T10:13:56;12.52;;;7.32;;
57893;SDS011;43710;47.460;19.034;2022-08-18T10:27:45;10.57;;;7.15;;
57893;SDS011;43710;47.460;19.034;2022-08-18T10:30:59;8.88;;;6.72;;
57893;SDS011;43710;47.460;19.034;2022-08-18T10:34:10;10.45;;;6.47;;
57893;SDS011;43710;47.460;19.034;2022-08-18T10:37:42;9.98;;;6.07;;
57893;SDS011;43710;47.460;19.034;2022-08-18T10:41:18;7.62;;;5.80;;
57893;SDS011;43710;47.460;19.034;2022-08-18T10:44:33;11.98;;;6.82;;
57893;SDS011;43710;47.460;19.034;2022-08-18T10:47:56;11.80;;;6.68;;
57893;SDS011;43710;47.460;19.034;2022-08-18T10:51:16;9.20;;;6.12;;
57893;SDS011;43710;47.460;19.034;2022-08-18T11:06:16;8.35;;;5.95;;
57893;SDS011;43710;47.460;19.034;2022-08-18T11:09:42;6.85;;;5.87;;
57893;SDS011;43710;47.460;19.034;2022-08-18T11:16:33;7.60;;;5.62;;
57893;SDS011;43710;47.460;19.034;2022-08-18T11:19:48;7.80;;;5.87;;
57893;SDS011;43710;47.460;19.034;2022-08-18T11:22:54;9.30;;;5.82;;
57893;SDS011;43710;47.460;19.034;2022-08-18T11:26:12;7.82;;;5.87;;
57893;SDS011;43710;47.460;19.034;2022-08-18T11:32:37;8.70;;;6.53;;
57893;SDS011;43710;47.460;19.034;2022-08-18T11:35:56;10.35;;;5.65;;
57893;SDS011;43710;47.460;19.034;2022-08-18T11:39:02;8.18;;;5.57;;
57893;SDS011;43710;47.460;19.034;2022-08-18T11:42:06;7.20;;;5.03;;
57893;SDS011;43710;47.460;19.034;2022-08-18T11:45:28;7.82;;;5.00;;
57893;SDS011;43710;47.460;19.034;2022-08-18T11:48:36;8.60;;;4.07;;
57893;SDS011;43710;47.460;19.034;2022-08-18T11:52:17;7.18;;;4.72;;
57893;SDS011;43710;47.460;19.034;2022-08-18T11:55:35;5.78;;;5.18;;
57893;SDS011;43710;47.460;19.034;2022-08-18T11:59:00;10.23;;;5.00;;
57893;SDS011;43710;47.460;19.034;2022-08-18T12:02:02;6.80;;;5.10;;
57893;SDS011;43710;47.460;19.034;2022-08-18T12:05:06;11.23;;;5.30;;
57893;SDS011;43710;47.460;19.034;2022-08-18T12:08:27;8.32;;;5.00;;
57893;SDS011;43710;47.460;19.034;2022-08-18T12:12:01;8.15;;;4.82;;
57893;SDS011;43710;47.460;19.034;2022-08-18T12:18:34;6.25;;;4.50;;
57893;SDS011;43710;47.460;19.034;2022-08-18T12:21:40;7.22;;;4.43;;
57893;SDS011;43710;47.460;19.034;2022-08-18T12:24:46;8.70;;;4.40;;
57893;SDS011;43710;47.460;19.034;2022-08-18T12:27:49;6.78;;;4.30;;
57893;SDS011;43710;47.460;19.034;2022-08-18T12:30:51;9.27;;;4.32;;
57893;SDS011;43710;47.460;19.034;2022-08-18T12:33:58;13.30;;;5.43;;
57893;SDS011;43710;47.460;19.034;2022-08-18T12:37:02;14.03;;;5.43;;
57893;SDS011;43710;47.460;19.034;2022-08-18T12:40:11;6.97;;;4.65;;
57893;SDS011;43710;47.460;19.034;2022-08-18T12:43:13;6.15;;;4.85;;
57893;SDS011;43710;47.460;19.034;2022-08-18T12:46:17;9.27;;;5.05;;
57893;SDS011;43710;47.460;19.034;2022-08-18T12:49:20;10.77;;;4.75;;
57893;SDS011;43710;47.460;19.034;2022-08-18T12:52:24;10.27;;;4.68;;
57893;SDS011;43710;47.460;19.034;2022-08-18T12:55:27;8.18;;;4.53;;
57893;SDS011;43710;47.460;19.034;2022-08-18T12:58:32;7.62;;;4.57;;
57893;SDS011;43710;47.460;19.034;2022-08-18T13:04:40;8.55;;;4.85;;
57893;SDS011;43710;47.460;19.034;2022-08-18T13:07:44;7.05;;;4.60;;
57893;SDS011;43710;47.460;19.034;2022-08-18T13:10:48;7.00;;;4.70;;
57893;SDS011;43710;47.460;19.034;2022-08-18T13:13:59;9.18;;;4.57;;
57893;SDS011;43710;47.460;19.034;2022-08-18T13:17:09;7.82;;;4.50;;
57893;SDS011;43710;47.460;19.034;2022-08-18T13:20:31;13.50;;;4.95;;
57893;SDS011;43710;47.460;19.034;2022-08-18T13:23:37;9.32;;;4.65;;
57893;SDS011;43710;47.460;19.034;2022-08-18T13:26:42;6.90;;;4.87;;
57893;SDS011;43710;47.460;19.034;2022-08-18T13:29:47;11.00;;;4.80;;
57893;SDS011;43710;47.460;19.034;2022-08-18T13:32:52;9.88;;;4.87;;
57893;SDS011;43710;47.460;19.034;2022-08-18T13:36:01;6.93;;;5.03;;
57893;SDS011;43710;47.460;19.034;2022-08-18T13:39:03;10.98;;;4.53;;
57893;SDS011;43710;47.460;19.034;2022-08-18T13:42:09;7.70;;;4.93;;
57893;SDS011;43710;47.460;19.034;2022-08-18T13:45:27;7.87;;;5.15;;
57893;SDS011;43710;47.460;19.034;2022-08-18T13:48:33;12.18;;;5.07;;
57893;SDS011;43710;47.460;19.034;2022-08-18T13:51:36;16.70;;;5.47;;
57893;SDS011;43710;47.460;19.034;2022-08-18T13:54:43;8.40;;;5.37;;
57893;SDS011;43710;47.460;19.034;2022-08-18T13:57:54;10.63;;;5.10;;
57893;SDS011;43710;47.460;19.034;2022-08-18T14:00:58;12.10;;;4.80;;
57893;SDS011;43710;47.460;19.034;2022-08-18T14:04:23;7.28;;;4.93;;
57893;SDS011;43710;47.460;19.034;2022-08-18T14:07:28;11.02;;;4.70;;
57893;SDS011;43710;47.460;19.034;2022-08-18T14:10:36;9.73;;;4.78;;
57893;SDS011;43710;47.460;19.034;2022-08-18T14:13:39;12.40;;;5.10;;
57893;SDS011;43710;47.460;19.034;2022-08-18T14:16:45;11.50;;;4.60;;
57893;SDS011;43710;47.460;19.034;2022-08-18T14:19:49;13.75;;;4.57;;
57893;SDS011;43710;47.460;19.034;2022-08-18T14:23:22;12.45;;;5.20;;
57893;SDS011;43710;47.460;19.034;2022-08-18T14:26:53;12.05;;;5.22;;
57893;SDS011;43710;47.460;19.034;2022-08-18T14:29:56;12.90;;;5.07;;
57893;SDS011;43710;47.460;19.034;2022-08-18T14:33:01;7.80;;;4.75;;
57893;SDS011;43710;47.460;19.034;2022-08-18T14:36:12;10.23;;;4.80;;
57893;SDS011;43710;47.460;19.034;2022-08-18T14:39:15;6.40;;;4.37;;
